sensor_id;sensor_type;location;lat;lon;timestamp;P1;durP1;ratioP1;P2;durP2;ratioP2
20449;SDS011;10384;51.940;8.432;2023-04-01T00:00:54;1.43;;;0.83;;
20449;SDS011;10384;51.940;8.432;2023-04-01T00:03:21;1.40;;;0.60;;
20449;SDS011;10384;51.940;8.432;2023-04-01T00:05:47;2.57;;;0.87;;
20449;SDS011;10384;51.940;8.432;2023-04-01T00:08:13;1.80;;;0.97;;
20449;SDS011;10384;51.940;8.432;2023-04-01T00:10:39;2.00;;;0.57;;
20449;SDS011;10384;51.940;8.432;2023-04-01T00:13:06;1.87;;;0.73;;
20449;SDS011;10384;51.940;8.432;2023-04-01T00:15:32;1.73;;;0.60;;
20449;SDS011;10384;51.940;8.432;2023-04-01T00:17:58;3.07;;;0.93;;
20449;SDS011;10384;51.940;8.432;2023-04-01T00:20:25;1.20;;;0.60;;
20449;SDS011;10384;51.940;8.432;2023-04-01T00:22:51;1.23;;;0.60;;
20449;SDS011;10384;51.940;8.432;2023-04-01T00:25:17;1.10;;;0.60;;
20449;SDS011;10384;51.940;8.432;2023-04-01T00:27:43;0.90;;;0.50;;
20449;SDS011;10384;51.940;8.432;2023-04-01T00:30:10;2.40;;;0.70;;
20449;SDS011;10384;51.940;8.432;2023-04-01T00:32:36;0.83;;;0.60;;
20449;SDS011;10384;51.940;8.432;2023-04-01T00:35:02;1.90;;;0.60;;
20449;SDS011;10384;51.940;8.432;2023-04-01T00:37:28;2.47;;;0.70;;
20449;SDS011;10384;51.940;8.432;2023-04-01T00:39:54;1.33;;;0.60;;
20449;SDS011;10384;51.940;8.432;2023-04-01T00:42:21;0.93;;;0.60;;
20449;SDS011;10384;51.940;8.432;2023-04-01T00:44:49;3.13;;;0.73;;
20449;SDS011;10384;51.940;8.432;2023-04-01T00:47:16;1.37;;;0.80;;
20449;SDS011;10384;51.940;8.432;2023-04-01T00:49:44;0.97;;;0.70;;
20449;SDS011;10384;51.940;8.432;2023-04-01T00:52:12;1.17;;;0.60;;
20449;SDS011;10384;51.940;8.432;2023-04-01T00:54:38;2.97;;;1.07;;
20449;SDS011;10384;51.940;8.432;2023-04-01T00:57:12;2.33;;;0.70;;
20449;SDS011;10384;51.940;8.432;2023-04-01T00:59:40;0.90;;;0.60;;
20449;SDS011;10384;51.940;8.432;2023-04-01T01:02:08;0.90;;;0.60;;
20449;SDS011;10384;51.940;8.432;2023-04-01T01:04:35;1.63;;;0.50;;
20449;SDS011;10384;51.940;8.432;2023-04-01T01:12:11;3.07;;;0.67;;
20449;SDS011;10384;51.940;8.432;2023-04-01T01:14:55;2.20;;;0.60;;
20449;SDS011;10384;51.940;8.432;2023-04-01T01:17:28;0.63;;;0.47;;
20449;SDS011;10384;51.940;8.432;2023-04-01T01:36:12;3.50;;;0.50;;
20449;SDS011;10384;51.940;8.432;2023-04-01T01:38:39;0.30;;;0.30;;
20449;SDS011;10384;51.940;8.432;2023-04-01T01:41:06;2.27;;;0.60;;
20449;SDS011;10384;51.940;8.432;2023-04-01T01:43:35;1.87;;;0.50;;
20449;SDS011;10384;51.940;8.432;2023-04-01T01:46:05;2.10;;;0.63;;
20449;SDS011;10384;51.940;8.432;2023-04-01T01:48:32;0.60;;;0.50;;
20449;SDS011;10384;51.940;8.432;2023-04-01T01:50:59;0.40;;;0.40;;
20449;SDS011;10384;51.940;8.432;2023-04-01T01:53:25;2.60;;;0.60;;
20449;SDS011;10384;51.940;8.432;2023-04-01T01:55:51;1.50;;;0.53;;
20449;SDS011;10384;51.940;8.432;2023-04-01T02:01:06;1.00;;;0.40;;
20449;SDS011;10384;51.940;8.432;2023-04-01T02:03:36;1.73;;;0.60;;
20449;SDS011;10384;51.940;8.432;2023-04-01T02:06:04;3.77;;;0.60;;
20449;SDS011;10384;51.940;8.432;2023-04-01T02:11:00;0.47;;;0.40;;
20449;SDS011;10384;51.940;8.432;2023-04-01T02:13:31;0.63;;;0.40;;
20449;SDS011;10384;51.940;8.432;2023-04-01T02:16:00;0.70;;;0.33;;
20449;SDS011;10384;51.940;8.432;2023-04-01T02:18:28;1.43;;;0.60;;
20449;SDS011;10384;51.940;8.432;2023-04-01T02:20:56;0.47;;;0.30;;
20449;SDS011;10384;51.940;8.432;2023-04-01T02:23:22;1.70;;;0.30;;
20449;SDS011;10384;51.940;8.432;2023-04-01T02:25:49;0.47;;;0.47;;
20449;SDS011;10384;51.940;8.432;2023-04-01T02:28:15;1.73;;;0.50;;
20449;SDS011;10384;51.940;8.432;2023-04-01T02:30:44;0.87;;;0.43;;
20449;SDS011;10384;51.940;8.432;2023-04-01T02:33:11;1.10;;;0.50;;
20449;SDS011;10384;51.940;8.432;2023-04-01T02:35:37;1.53;;;0.60;;
20449;SDS011;10384;51.940;8.432;2023-04-01T02:38:04;1.60;;;0.30;;
20449;SDS011;10384;51.940;8.432;2023-04-01T02:40:40;0.80;;;0.40;;
20449;SDS011;10384;51.940;8.432;2023-04-01T02:43:06;0.40;;;0.40;;
20449;SDS011;10384;51.940;8.432;2023-04-01T02:45:32;0.73;;;0.40;;
20449;SDS011;10384;51.940;8.432;2023-04-01T02:47:58;0.30;;;0.30;;
20449;SDS011;10384;51.940;8.432;2023-04-01T02:50:24;0.50;;;0.40;;
20449;SDS011;10384;51.940;8.432;2023-04-01T02:52:50;1.30;;;0.50;;
20449;SDS011;10384;51.940;8.432;2023-04-01T02:55:16;0.70;;;0.40;;
20449;SDS011;10384;51.940;8.432;2023-04-01T02:57:42;0.80;;;0.50;;
20449;SDS011;10384;51.940;8.432;2023-04-01T03:00:08;1.40;;;0.57;;
20449;SDS011;10384;51.940;8.432;2023-04-01T03:02:36;1.33;;;0.37;;
20449;SDS011;10384;51.940;8.432;2023-04-01T03:05:03;1.63;;;0.33;;
20449;SDS011;10384;51.940;8.432;2023-04-01T03:07:29;1.73;;;0.47;;
20449;SDS011;10384;51.940;8.432;2023-04-01T03:09:55;0.93;;;0.50;;
20449;SDS011;10384;51.940;8.432;2023-04-01T03:12:21;0.60;;;0.40;;
20449;SDS011;10384;51.940;8.432;2023-04-01T03:14:47;1.57;;;0.40;;
20449;SDS011;10384;51.940;8.432;2023-04-01T03:17:13;0.43;;;0.33;;
20449;SDS011;10384;51.940;8.432;2023-04-01T03:19:39;0.50;;;0.37;;
20449;SDS011;10384;51.940;8.432;2023-04-01T03:22:05;0.40;;;0.40;;
20449;SDS011;10384;51.940;8.432;2023-04-01T03:24:31;0.20;;;0.20;;
20449;SDS011;10384;51.940;8.432;2023-04-01T03:26:57;2.17;;;0.70;;
20449;SDS011;10384;51.940;8.432;2023-04-01T03:29:23;0.60;;;0.50;;
20449;SDS011;10384;51.940;8.432;2023-04-01T03:31:49;0.87;;;0.33;;
20449;SDS011;10384;51.940;8.432;2023-04-01T03:34:15;0.87;;;0.30;;
20449;SDS011;10384;51.940;8.432;2023-04-01T03:36:41;1.60;;;0.40;;
20449;SDS011;10384;51.940;8.432;2023-04-01T03:39:07;2.10;;;0.40;;
20449;SDS011;10384;51.940;8.432;2023-04-01T03:41:35;0.20;;;0.20;;
20449;SDS011;10384;51.940;8.432;2023-04-01T03:44:01;0.50;;;0.40;;
20449;SDS011;10384;51.940;8.432;2023-04-01T03:46:27;0.33;;;0.30;;
20449;SDS011;10384;51.940;8.432;2023-04-01T03:48:53;0.80;;;0.43;;
20449;SDS011;10384;51.940;8.432;2023-04-01T03:51:19;0.97;;;0.47;;
20449;SDS011;10384;51.940;8.432;2023-04-01T03:53:45;0.47;;;0.40;;
20449;SDS011;10384;51.940;8.432;2023-04-01T03:56:11;0.40;;;0.40;;
20449;SDS011;10384;51.940;8.432;2023-04-01T03:58:37;0.40;;;0.33;;
20449;SDS011;10384;51.940;8.432;2023-04-01T04:01:12;0.50;;;0.40;;
20449;SDS011;10384;51.940;8.432;2023-04-01T04:03:38;2.03;;;0.40;;
20449;SDS011;10384;51.940;8.432;2023-04-01T04:06:04;0.83;;;0.40;;
20449;SDS011;10384;51.940;8.432;2023-04-01T04:08:30;0.30;;;0.30;;
20449;SDS011;10384;51.940;8.432;2023-04-01T04:10:56;1.47;;;0.47;;
20449;SDS011;10384;51.940;8.432;2023-04-01T04:13:22;0.33;;;0.30;;
20449;SDS011;10384;51.940;8.432;2023-04-01T04:15:48;0.60;;;0.30;;
20449;SDS011;10384;51.940;8.432;2023-04-01T04:18:14;0.30;;;0.30;;
20449;SDS011;10384;51.940;8.432;2023-04-01T04:20:46;1.37;;;0.60;;
20449;SDS011;10384;51.940;8.432;2023-04-01T04:23:15;0.27;;;0.27;;
20449;SDS011;10384;51.940;8.432;2023-04-01T04:25:41;0.40;;;0.40;;
20449;SDS011;10384;51.940;8.432;2023-04-01T04:28:07;1.53;;;0.40;;
20449;SDS011;10384;51.940;8.432;2023-04-01T04:30:33;1.23;;;0.43;;
20449;SDS011;10384;51.940;8.432;2023-04-01T04:32:59;2.33;;;1.13;;
20449;SDS011;10384;51.940;8.432;2023-04-01T04:35:25;0.93;;;0.40;;
20449;SDS011;10384;51.940;8.432;2023-04-01T04:37:51;1.17;;;0.30;;
20449;SDS011;10384;51.940;8.432;2023-04-01T04:40:17;0.30;;;0.30;;
20449;SDS011;10384;51.940;8.432;2023-04-01T04:42:43;0.33;;;0.30;;
20449;SDS011;10384;51.940;8.432;2023-04-01T04:45:09;0.83;;;0.40;;
20449;SDS011;10384;51.940;8.432;2023-04-01T04:47:37;1.70;;;0.20;;
20449;SDS011;10384;51.940;8.432;2023-04-01T04:50:03;1.13;;;0.40;;
20449;SDS011;10384;51.940;8.432;2023-04-01T04:52:29;0.30;;;0.30;;
20449;SDS011;10384;51.940;8.432;2023-04-01T04:54:55;2.47;;;0.40;;
20449;SDS011;10384;51.940;8.432;2023-04-01T04:57:21;0.33;;;0.33;;
20449;SDS011;10384;51.940;8.432;2023-04-01T04:59:47;0.63;;;0.63;;
20449;SDS011;10384;51.940;8.432;2023-04-01T05:02:13;0.50;;;0.40;;
20449;SDS011;10384;51.940;8.432;2023-04-01T05:04:39;0.47;;;0.40;;
20449;SDS011;10384;51.940;8.432;2023-04-01T05:07:05;0.63;;;0.40;;
20449;SDS011;10384;51.940;8.432;2023-04-01T05:09:31;0.77;;;0.40;;
20449;SDS011;10384;51.940;8.432;2023-04-01T05:11:58;1.73;;;0.40;;
20449;SDS011;10384;51.940;8.432;2023-04-01T05:14:24;2.20;;;0.50;;
20449;SDS011;10384;51.940;8.432;2023-04-01T05:16:50;1.33;;;0.30;;
20449;SDS011;10384;51.940;8.432;2023-04-01T05:19:16;0.40;;;0.40;;
20449;SDS011;10384;51.940;8.432;2023-04-01T05:21:42;0.43;;;0.30;;
20449;SDS011;10384;51.940;8.432;2023-04-01T05:24:08;1.27;;;0.50;;
20449;SDS011;10384;51.940;8.432;2023-04-01T05:26:35;0.30;;;0.30;;
20449;SDS011;10384;51.940;8.432;2023-04-01T05:29:02;1.97;;;0.40;;
20449;SDS011;10384;51.940;8.432;2023-04-01T05:31:28;1.20;;;0.53;;
20449;SDS011;10384;51.940;8.432;2023-04-01T05:33:54;0.47;;;0.37;;
20449;SDS011;10384;51.940;8.432;2023-04-01T05:36:20;0.30;;;0.30;;
20449;SDS011;10384;51.940;8.432;2023-04-01T05:38:46;0.40;;;0.40;;
20449;SDS011;10384;51.940;8.432;2023-04-01T05:41:13;0.37;;;0.37;;
20449;SDS011;10384;51.940;8.432;2023-04-01T05:43:39;0.60;;;0.40;;
20449;SDS011;10384;51.940;8.432;2023-04-01T05:46:06;0.30;;;0.30;;
20449;SDS011;10384;51.940;8.432;2023-04-01T05:48:32;0.43;;;0.43;;
20449;SDS011;10384;51.940;8.432;2023-04-01T05:50:59;0.37;;;0.37;;
20449;SDS011;10384;51.940;8.432;2023-04-01T05:53:25;1.17;;;0.60;;
20449;SDS011;10384;51.940;8.432;2023-04-01T05:55:51;1.37;;;0.50;;
20449;SDS011;10384;51.940;8.432;2023-04-01T05:58:17;2.00;;;0.50;;
20449;SDS011;10384;51.940;8.432;2023-04-01T06:00:43;0.60;;;0.50;;
20449;SDS011;10384;51.940;8.432;2023-04-01T06:03:09;2.17;;;0.50;;
20449;SDS011;10384;51.940;8.432;2023-04-01T06:05:38;1.13;;;0.40;;
20449;SDS011;10384;51.940;8.432;2023-04-01T06:08:14;0.57;;;0.50;;
20449;SDS011;10384;51.940;8.432;2023-04-01T06:10:53;0.63;;;0.50;;
20449;SDS011;10384;51.940;8.432;2023-04-01T06:15:59;3.40;;;0.43;;
20449;SDS011;10384;51.940;8.432;2023-04-01T06:29:11;4.67;;;1.07;;
20449;SDS011;10384;51.940;8.432;2023-04-01T06:39:40;2.00;;;0.60;;
20449;SDS011;10384;51.940;8.432;2023-04-01T06:42:23;0.50;;;0.50;;
20449;SDS011;10384;51.940;8.432;2023-04-01T06:47:29;0.83;;;0.40;;
20449;SDS011;10384;51.940;8.432;2023-04-01T06:50:09;1.20;;;0.47;;
20449;SDS011;10384;51.940;8.432;2023-04-01T06:52:44;0.77;;;0.50;;
20449;SDS011;10384;51.940;8.432;2023-04-01T06:55:30;0.93;;;0.40;;
20449;SDS011;10384;51.940;8.432;2023-04-01T06:57:58;0.97;;;0.50;;
20449;SDS011;10384;51.940;8.432;2023-04-01T07:02:57;0.87;;;0.40;;
20449;SDS011;10384;51.940;8.432;2023-04-01T07:05:25;0.80;;;0.57;;
20449;SDS011;10384;51.940;8.432;2023-04-01T07:07:56;0.83;;;0.70;;
20449;SDS011;10384;51.940;8.432;2023-04-01T07:10:27;1.00;;;0.70;;
20449;SDS011;10384;51.940;8.432;2023-04-01T07:12:58;2.00;;;0.80;;
20449;SDS011;10384;51.940;8.432;2023-04-01T07:18:03;1.47;;;0.80;;
20449;SDS011;10384;51.940;8.432;2023-04-01T07:20:31;1.47;;;0.70;;
20449;SDS011;10384;51.940;8.432;2023-04-01T07:22:58;2.00;;;0.97;;
20449;SDS011;10384;51.940;8.432;2023-04-01T07:28:01;1.63;;;0.90;;
20449;SDS011;10384;51.940;8.432;2023-04-01T07:30:28;1.13;;;0.73;;
20449;SDS011;10384;51.940;8.432;2023-04-01T07:33:01;3.97;;;1.00;;
20449;SDS011;10384;51.940;8.432;2023-04-01T07:35:35;1.10;;;0.70;;
20449;SDS011;10384;51.940;8.432;2023-04-01T07:43:22;1.83;;;0.73;;
20449;SDS011;10384;51.940;8.432;2023-04-01T07:51:39;1.30;;;0.70;;
20449;SDS011;10384;51.940;8.432;2023-04-01T07:59:20;0.73;;;0.70;;
20449;SDS011;10384;51.940;8.432;2023-04-01T08:09:49;0.90;;;0.60;;
20449;SDS011;10384;51.940;8.432;2023-04-01T08:14:59;0.70;;;0.70;;
20449;SDS011;10384;51.940;8.432;2023-04-01T08:20:03;0.70;;;0.70;;
20449;SDS011;10384;51.940;8.432;2023-04-01T08:22:49;0.70;;;0.63;;
20449;SDS011;10384;51.940;8.432;2023-04-01T08:25:17;1.10;;;0.80;;
20449;SDS011;10384;51.940;8.432;2023-04-01T08:27:51;1.87;;;0.80;;
20449;SDS011;10384;51.940;8.432;2023-04-01T08:30:26;1.40;;;0.70;;
20449;SDS011;10384;51.940;8.432;2023-04-01T08:32:58;0.63;;;0.60;;
20449;SDS011;10384;51.940;8.432;2023-04-01T08:38:04;1.03;;;0.90;;
20449;SDS011;10384;51.940;8.432;2023-04-01T08:40:35;4.20;;;0.80;;
20449;SDS011;10384;51.940;8.432;2023-04-01T08:56:06;1.17;;;1.00;;
20449;SDS011;10384;51.940;8.432;2023-04-01T09:00:57;1.10;;;0.73;;
20449;SDS011;10384;51.940;8.432;2023-04-01T09:11:04;1.60;;;0.80;;
20449;SDS011;10384;51.940;8.432;2023-04-01T09:13:37;1.57;;;0.97;;
20449;SDS011;10384;51.940;8.432;2023-04-01T09:16:23;1.37;;;1.00;;
20449;SDS011;10384;51.940;8.432;2023-04-01T09:19:06;1.10;;;0.80;;
20449;SDS011;10384;51.940;8.432;2023-04-01T09:29:49;0.70;;;0.70;;
20449;SDS011;10384;51.940;8.432;2023-04-01T09:32:25;1.10;;;0.87;;
20449;SDS011;10384;51.940;8.432;2023-04-01T09:40:16;2.33;;;1.07;;
20449;SDS011;10384;51.940;8.432;2023-04-01T09:42:53;1.10;;;0.80;;
20449;SDS011;10384;51.940;8.432;2023-04-01T09:50:43;2.87;;;1.00;;
20449;SDS011;10384;51.940;8.432;2023-04-01T10:00:39;2.17;;;1.00;;
20449;SDS011;10384;51.940;8.432;2023-04-01T10:08:48;0.83;;;0.73;;
20449;SDS011;10384;51.940;8.432;2023-04-01T10:16:34;0.80;;;0.73;;
20449;SDS011;10384;51.940;8.432;2023-04-01T10:32:28;1.07;;;0.83;;
20449;SDS011;10384;51.940;8.432;2023-04-01T10:43:39;1.53;;;1.10;;
20449;SDS011;10384;51.940;8.432;2023-04-01T10:46:15;2.30;;;1.17;;
20449;SDS011;10384;51.940;8.432;2023-04-01T10:48:59;1.43;;;1.00;;
20449;SDS011;10384;51.940;8.432;2023-04-01T11:12:59;1.50;;;1.27;;
20449;SDS011;10384;51.940;8.432;2023-04-01T11:15:53;2.00;;;1.30;;
20449;SDS011;10384;51.940;8.432;2023-04-01T11:26:45;1.27;;;1.00;;
20449;SDS011;10384;51.940;8.432;2023-04-01T11:31:47;2.20;;;1.47;;
20449;SDS011;10384;51.940;8.432;2023-04-01T11:44:57;1.50;;;1.00;;
20449;SDS011;10384;51.940;8.432;2023-04-01T11:47:46;1.53;;;1.00;;
20449;SDS011;10384;51.940;8.432;2023-04-01T12:00:14;1.40;;;1.10;;
20449;SDS011;10384;51.940;8.432;2023-04-01T12:02:55;1.40;;;0.90;;
20449;SDS011;10384;51.940;8.432;2023-04-01T12:10:46;1.13;;;1.00;;
20449;SDS011;10384;51.940;8.432;2023-04-01T12:15:52;1.03;;;0.80;;
20449;SDS011;10384;51.940;8.432;2023-04-01T12:23:56;2.37;;;1.50;;
20449;SDS011;10384;51.940;8.432;2023-04-01T12:26:59;1.93;;;1.60;;
20449;SDS011;10384;51.940;8.432;2023-04-01T12:32:04;2.10;;;1.50;;
20449;SDS011;10384;51.940;8.432;2023-04-01T12:34:48;3.57;;;1.80;;
20449;SDS011;10384;51.940;8.432;2023-04-01T12:37:21;2.67;;;1.73;;
20449;SDS011;10384;51.940;8.432;2023-04-01T12:48:01;1.87;;;1.30;;
20449;SDS011;10384;51.940;8.432;2023-04-01T12:50:34;2.23;;;1.60;;
20449;SDS011;10384;51.940;8.432;2023-04-01T13:03:12;2.17;;;1.60;;
20449;SDS011;10384;51.940;8.432;2023-04-01T13:06:03;2.10;;;1.43;;
20449;SDS011;10384;51.940;8.432;2023-04-01T13:16:50;3.03;;;2.10;;
20449;SDS011;10384;51.940;8.432;2023-04-01T13:21:58;2.80;;;1.73;;
20449;SDS011;10384;51.940;8.432;2023-04-01T13:29:41;3.27;;;2.10;;
20449;SDS011;10384;51.940;8.432;2023-04-01T13:32:14;7.30;;;4.00;;
20449;SDS011;10384;51.940;8.432;2023-04-01T13:35:29;4.57;;;2.80;;
20449;SDS011;10384;51.940;8.432;2023-04-01T13:43:01;4.93;;;2.80;;
20449;SDS011;10384;51.940;8.432;2023-04-01T13:51:11;3.30;;;2.20;;
20449;SDS011;10384;51.940;8.432;2023-04-01T14:14:43;4.83;;;2.50;;
20449;SDS011;10384;51.940;8.432;2023-04-01T14:19:50;4.47;;;2.50;;
20449;SDS011;10384;51.940;8.432;2023-04-01T14:27:46;5.13;;;2.70;;
20449;SDS011;10384;51.940;8.432;2023-04-01T14:30:23;4.17;;;2.60;;
20449;SDS011;10384;51.940;8.432;2023-04-01T14:35:37;4.73;;;2.80;;
20449;SDS011;10384;51.940;8.432;2023-04-01T14:38:20;3.63;;;2.57;;
20449;SDS011;10384;51.940;8.432;2023-04-01T14:40:55;4.20;;;2.53;;
20449;SDS011;10384;51.940;8.432;2023-04-01T14:48:39;4.43;;;2.53;;
20449;SDS011;10384;51.940;8.432;2023-04-01T14:53:42;3.97;;;2.60;;
20449;SDS011;10384;51.940;8.432;2023-04-01T14:56:10;3.70;;;2.80;;
20449;SDS011;10384;51.940;8.432;2023-04-01T15:08:38;3.90;;;2.10;;
20449;SDS011;10384;51.940;8.432;2023-04-01T15:13:42;3.10;;;2.10;;
20449;SDS011;10384;51.940;8.432;2023-04-01T15:16:17;3.33;;;2.20;;
20449;SDS011;10384;51.940;8.432;2023-04-01T15:21:25;3.20;;;2.20;;
20449;SDS011;10384;51.940;8.432;2023-04-01T15:28:53;2.53;;;2.00;;
20449;SDS011;10384;51.940;8.432;2023-04-01T15:36:33;2.40;;;1.83;;
20449;SDS011;10384;51.940;8.432;2023-04-01T15:39:10;3.73;;;2.13;;
20449;SDS011;10384;51.940;8.432;2023-04-01T15:46:56;3.13;;;2.30;;
20449;SDS011;10384;51.940;8.432;2023-04-01T15:49:34;3.40;;;2.10;;
20449;SDS011;10384;51.940;8.432;2023-04-01T16:10:06;4.33;;;2.90;;
20449;SDS011;10384;51.940;8.432;2023-04-01T16:12:46;5.63;;;3.23;;
20449;SDS011;10384;51.940;8.432;2023-04-01T16:15:18;5.00;;;3.27;;
20449;SDS011;10384;51.940;8.432;2023-04-01T16:18:33;4.80;;;3.20;;
20449;SDS011;10384;51.940;8.432;2023-04-01T16:20:44;5.53;;;3.03;;
20449;SDS011;10384;51.940;8.432;2023-04-01T16:23:22;4.60;;;2.73;;
20449;SDS011;10384;51.940;8.432;2023-04-01T16:25:57;4.37;;;2.90;;
20449;SDS011;10384;51.940;8.432;2023-04-01T16:28:32;4.27;;;2.67;;
20449;SDS011;10384;51.940;8.432;2023-04-01T16:35:56;5.70;;;2.80;;
20449;SDS011;10384;51.940;8.432;2023-04-01T16:43:58;4.73;;;2.67;;
20449;SDS011;10384;51.940;8.432;2023-04-01T16:49:15;4.80;;;2.73;;
20449;SDS011;10384;51.940;8.432;2023-04-01T16:51:46;5.53;;;2.77;;
20449;SDS011;10384;51.940;8.432;2023-04-01T16:59:34;2.73;;;1.70;;
20449;SDS011;10384;51.940;8.432;2023-04-01T17:07:19;2.77;;;1.90;;
20449;SDS011;10384;51.940;8.432;2023-04-01T17:12:40;6.30;;;2.40;;
20449;SDS011;10384;51.940;8.432;2023-04-01T17:20:32;4.13;;;1.23;;
20449;SDS011;10384;51.940;8.432;2023-04-01T17:23:11;1.77;;;1.00;;
20449;SDS011;10384;51.940;8.432;2023-04-01T17:28:34;1.83;;;0.87;;
20449;SDS011;10384;51.940;8.432;2023-04-01T17:36:27;1.70;;;1.30;;
20449;SDS011;10384;51.940;8.432;2023-04-01T17:41:48;2.07;;;1.33;;
20449;SDS011;10384;51.940;8.432;2023-04-01T17:44:19;1.53;;;1.30;;
20449;SDS011;10384;51.940;8.432;2023-04-01T17:54:33;1.93;;;1.50;;
20449;SDS011;10384;51.940;8.432;2023-04-01T17:57:10;2.10;;;1.40;;
20449;SDS011;10384;51.940;8.432;2023-04-01T18:00:37;3.10;;;1.63;;
20449;SDS011;10384;51.940;8.432;2023-04-01T18:15:10;1.00;;;0.87;;
20449;SDS011;10384;51.940;8.432;2023-04-01T18:17:50;0.87;;;0.83;;
20449;SDS011;10384;51.940;8.432;2023-04-01T18:20:21;1.20;;;1.00;;
20449;SDS011;10384;51.940;8.432;2023-04-01T18:25:24;1.17;;;0.90;;
20449;SDS011;10384;51.940;8.432;2023-04-01T18:30:28;1.20;;;0.90;;
20449;SDS011;10384;51.940;8.432;2023-04-01T18:40:24;1.63;;;1.23;;
20449;SDS011;10384;51.940;8.432;2023-04-01T18:42:56;0.70;;;0.70;;
20449;SDS011;10384;51.940;8.432;2023-04-01T18:45:28;1.43;;;0.93;;
20449;SDS011;10384;51.940;8.432;2023-04-01T18:48:06;1.23;;;1.00;;
20449;SDS011;10384;51.940;8.432;2023-04-01T19:01:28;2.50;;;0.87;;
20449;SDS011;10384;51.940;8.432;2023-04-01T19:06:35;1.20;;;1.00;;
20449;SDS011;10384;51.940;8.432;2023-04-01T19:09:12;1.00;;;0.90;;
20449;SDS011;10384;51.940;8.432;2023-04-01T19:17:15;1.60;;;1.10;;
20449;SDS011;10384;51.940;8.432;2023-04-01T19:19:56;1.40;;;0.80;;
20449;SDS011;10384;51.940;8.432;2023-04-01T19:30:05;1.00;;;0.60;;
20449;SDS011;10384;51.940;8.432;2023-04-01T19:32:48;0.80;;;0.57;;
20449;SDS011;10384;51.940;8.432;2023-04-01T19:43:15;0.93;;;0.60;;
20449;SDS011;10384;51.940;8.432;2023-04-01T19:45:48;0.83;;;0.60;;
20449;SDS011;10384;51.940;8.432;2023-04-01T19:51:03;1.00;;;0.80;;
20449;SDS011;10384;51.940;8.432;2023-04-01T19:56:20;0.70;;;0.50;;
20449;SDS011;10384;51.940;8.432;2023-04-01T20:04:40;0.57;;;0.57;;
20449;SDS011;10384;51.940;8.432;2023-04-01T20:07:13;1.83;;;1.00;;
20449;SDS011;10384;51.940;8.432;2023-04-01T20:15:00;3.07;;;1.60;;
20449;SDS011;10384;51.940;8.432;2023-04-01T20:19:59;1.83;;;1.30;;
20449;SDS011;10384;51.940;8.432;2023-04-01T20:27:41;2.33;;;1.63;;
20449;SDS011;10384;51.940;8.432;2023-04-01T20:30:26;2.00;;;1.63;;
20449;SDS011;10384;51.940;8.432;2023-04-01T20:33:08;2.57;;;1.70;;
20449;SDS011;10384;51.940;8.432;2023-04-01T20:35:41;3.10;;;1.67;;
20449;SDS011;10384;51.940;8.432;2023-04-01T20:40:57;2.87;;;2.03;;
20449;SDS011;10384;51.940;8.432;2023-04-01T20:53:15;1.60;;;1.20;;
20449;SDS011;10384;51.940;8.432;2023-04-01T21:04:00;1.47;;;0.90;;
20449;SDS011;10384;51.940;8.432;2023-04-01T21:06:36;1.50;;;1.00;;
20449;SDS011;10384;51.940;8.432;2023-04-01T21:09:19;1.50;;;1.13;;
20449;SDS011;10384;51.940;8.432;2023-04-01T21:11:56;1.97;;;1.20;;
20449;SDS011;10384;51.940;8.432;2023-04-01T21:20:04;2.57;;;1.47;;
20449;SDS011;10384;51.940;8.432;2023-04-01T21:25:21;2.53;;;1.70;;
20449;SDS011;10384;51.940;8.432;2023-04-01T21:30:27;2.40;;;1.50;;
20449;SDS011;10384;51.940;8.432;2023-04-01T21:33:05;1.60;;;1.30;;
20449;SDS011;10384;51.940;8.432;2023-04-01T21:38:15;2.50;;;1.40;;
20449;SDS011;10384;51.940;8.432;2023-04-01T21:40:57;2.53;;;1.70;;
20449;SDS011;10384;51.940;8.432;2023-04-01T21:43:36;2.47;;;1.90;;
20449;SDS011;10384;51.940;8.432;2023-04-01T21:48:41;2.27;;;1.60;;
20449;SDS011;10384;51.940;8.432;2023-04-01T22:09:47;2.00;;;1.30;;
20449;SDS011;10384;51.940;8.432;2023-04-01T22:12:20;3.67;;;1.87;;
20449;SDS011;10384;51.940;8.432;2023-04-01T22:25:10;2.73;;;1.73;;
20449;SDS011;10384;51.940;8.432;2023-04-01T22:27:50;2.70;;;1.90;;
20449;SDS011;10384;51.940;8.432;2023-04-01T22:30:24;2.30;;;1.80;;
20449;SDS011;10384;51.940;8.432;2023-04-01T22:32:56;2.40;;;1.80;;
20449;SDS011;10384;51.940;8.432;2023-04-01T22:35:33;4.67;;;2.23;;
20449;SDS011;10384;51.940;8.432;2023-04-01T22:38:15;2.20;;;1.77;;
20449;SDS011;10384;51.940;8.432;2023-04-01T22:40:52;2.47;;;1.80;;
20449;SDS011;10384;51.940;8.432;2023-04-01T22:46:02;2.67;;;1.80;;
20449;SDS011;10384;51.940;8.432;2023-04-01T22:51:13;2.73;;;2.00;;
20449;SDS011;10384;51.940;8.432;2023-04-01T22:56:30;2.97;;;1.90;;
20449;SDS011;10384;51.940;8.432;2023-04-01T22:59:13;3.30;;;2.00;;
20449;SDS011;10384;51.940;8.432;2023-04-01T23:01:45;2.80;;;1.97;;
20449;SDS011;10384;51.940;8.432;2023-04-01T23:04:15;2.97;;;2.10;;
20449;SDS011;10384;51.940;8.432;2023-04-01T23:06:44;2.47;;;1.90;;
20449;SDS011;10384;51.940;8.432;2023-04-01T23:09:15;3.17;;;2.03;;
20449;SDS011;10384;51.940;8.432;2023-04-01T23:11:55;2.20;;;1.80;;
20449;SDS011;10384;51.940;8.432;2023-04-01T23:19:20;2.53;;;1.60;;
20449;SDS011;10384;51.940;8.432;2023-04-01T23:21:50;1.77;;;1.40;;
20449;SDS011;10384;51.940;8.432;2023-04-01T23:27:20;2.00;;;1.23;;
20449;SDS011;10384;51.940;8.432;2023-04-01T23:29:47;2.97;;;1.47;;
20449;SDS011;10384;51.940;8.432;2023-04-01T23:32:14;2.40;;;1.53;;
20449;SDS011;10384;51.940;8.432;2023-04-01T23:34:45;3.17;;;1.60;;
20449;SDS011;10384;51.940;8.432;2023-04-01T23:37:11;2.33;;;1.40;;
20449;SDS011;10384;51.940;8.432;2023-04-01T23:39:41;1.80;;;1.37;;
20449;SDS011;10384;51.940;8.432;2023-04-01T23:44:40;2.77;;;1.40;;
20449;SDS011;10384;51.940;8.432;2023-04-01T23:47:08;2.63;;;1.53;;
20449;SDS011;10384;51.940;8.432;2023-04-01T23:49:44;3.10;;;1.73;;
20449;SDS011;10384;51.940;8.432;2023-04-01T23:57:18;2.53;;;1.77;;
20449;SDS011;10384;51.940;8.432;2023-04-01T23:59:58;3.37;;;1.80;;
